createdAt,value
2022-08-21T00:00:42.368Z,18.54
2022-08-21T00:04:57.048Z,18.43
2022-08-21T00:09:02.892Z,18.50
2022-08-21T00:13:07.863Z,18.45
2022-08-21T00:17:09.344Z,18.31
2022-08-21T00:21:13.518Z,18.29
2022-08-21T00:25:16.491Z,18.31
2022-08-21T00:29:21.912Z,18.36
2022-08-21T00:33:25.154Z,18.16
2022-08-21T00:37:26.698Z,18.24
2022-08-21T00:41:38.061Z,18.25
2022-08-21T00:45:40.719Z,17.99
2022-08-21T00:49:42.787Z,18.07
2022-08-21T00:53:50.653Z,18.11
2022-08-21T00:57:58.015Z,18.00
2022-08-21T01:01:59.593Z,17.95
2022-08-21T01:06:01.392Z,17.88
2022-08-21T01:10:05.554Z,17.92
2022-08-21T01:14:07.043Z,17.96
2022-08-21T01:18:10.444Z,17.89
2022-08-21T01:22:12.015Z,17.83
2022-08-21T01:26:15.349Z,17.97
2022-08-21T01:30:22.858Z,17.87
2022-08-21T01:34:24.492Z,17.89
2022-08-21T01:38:26.373Z,18.04
2022-08-21T01:42:29.068Z,17.74
2022-08-21T01:46:30.715Z,17.59
2022-08-21T01:50:32.172Z,17.42
2022-08-21T01:54:34.495Z,17.41
2022-08-21T01:58:36.468Z,17.53
2022-08-21T02:02:39.321Z,17.37
2022-08-21T02:06:40.824Z,17.46
2022-08-21T02:10:42.357Z,17.63
2022-08-21T02:14:50.568Z,17.61
2022-08-21T02:18:52.674Z,17.63
2022-08-21T02:22:54.938Z,17.38
2022-08-21T02:26:56.468Z,17.37
2022-08-21T02:30:58.854Z,17.32
2022-08-21T02:35:00.339Z,17.39
2022-08-21T02:39:01.799Z,17.46
2022-08-21T02:43:05.243Z,17.34
2022-08-21T02:47:06.735Z,17.15
2022-08-21T02:51:11.937Z,17.16
2022-08-21T02:55:13.620Z,17.17
2022-08-21T02:59:16.477Z,16.80
2022-08-21T03:03:18.153Z,16.91
2022-08-21T03:07:19.586Z,16.97
2022-08-21T03:11:21.808Z,16.98
2022-08-21T03:15:27.104Z,16.98
2022-08-21T03:19:28.600Z,16.85
2022-08-21T03:23:32.561Z,16.89
2022-08-21T03:27:35.025Z,16.83
2022-08-21T03:31:36.782Z,16.70
2022-08-21T03:35:38.218Z,16.76
2022-08-21T03:39:39.854Z,16.74
2022-08-21T03:43:41.338Z,16.75
2022-08-21T03:47:53.402Z,16.76
2022-08-21T03:51:59.143Z,16.66
2022-08-21T03:56:01.530Z,16.58
2022-08-21T04:00:05.562Z,16.58
2022-08-21T04:04:07.087Z,16.46
2022-08-21T04:08:09.160Z,16.42
2022-08-21T04:12:10.765Z,16.51
2022-08-21T04:16:13.352Z,16.46
2022-08-21T04:20:16.159Z,16.33
2022-08-21T04:24:17.629Z,16.32
2022-08-21T04:28:19.089Z,16.32
2022-08-21T04:32:26.908Z,16.34
2022-08-21T04:36:28.362Z,16.26
2022-08-21T04:40:30.052Z,16.34
2022-08-21T04:44:31.884Z,16.15
2022-08-21T04:48:34.061Z,16.26
2022-08-21T04:52:35.502Z,16.41
2022-08-21T04:56:43.664Z,15.95
2022-08-21T05:00:46.193Z,15.93
2022-08-21T05:04:50.951Z,16.01
2022-08-21T05:09:01.829Z,16.11
2022-08-21T05:13:04.237Z,16.22
2022-08-21T05:17:06.194Z,16.39
2022-08-21T05:21:07.636Z,16.38
2022-08-21T05:25:11.032Z,16.51
2022-08-21T05:29:16.373Z,16.62
2022-08-21T05:33:17.979Z,16.65
2022-08-21T05:37:19.379Z,16.72
2022-08-21T05:41:21.181Z,16.58
2022-08-21T05:45:43.333Z,16.51
2022-08-21T05:49:45.638Z,16.22
2022-08-21T05:53:47.263Z,16.37
2022-08-21T05:57:49.105Z,16.29
2022-08-21T06:01:53.704Z,16.24
2022-08-21T06:05:56.628Z,16.33
2022-08-21T06:09:58.121Z,16.37
2022-08-21T06:13:59.949Z,16.29
2022-08-21T06:18:01.460Z,16.49
2022-08-21T06:22:03.554Z,16.40
2022-08-21T06:26:07.233Z,16.37
2022-08-21T06:30:09.366Z,16.46
2022-08-21T06:34:11.690Z,16.44
2022-08-21T06:38:13.519Z,16.52
2022-08-21T06:42:18.701Z,16.49
2022-08-21T06:46:20.256Z,16.84
2022-08-21T06:50:21.804Z,16.77
2022-08-21T06:54:23.315Z,17.06
2022-08-21T06:58:24.802Z,17.23
2022-08-21T07:02:26.437Z,17.29
2022-08-21T07:06:27.917Z,17.56
2022-08-21T07:10:30.574Z,17.34
2022-08-21T07:14:32.456Z,17.24
2022-08-21T07:18:33.881Z,17.60
2022-08-21T07:22:37.312Z,17.75
2022-08-21T07:26:39.300Z,17.62
2022-08-21T07:30:40.750Z,17.87
2022-08-21T07:34:43.314Z,17.93
2022-08-21T07:38:44.865Z,18.08
2022-08-21T07:42:48.187Z,18.17
2022-08-21T07:46:49.657Z,18.46
2022-08-21T07:50:52.055Z,18.12
2022-08-21T07:54:54.265Z,18.53
2022-08-21T07:58:56.728Z,18.65
2022-08-21T08:02:58.613Z,18.55
2022-08-21T08:07:00.182Z,18.83
2022-08-21T08:11:02.471Z,18.96
2022-08-21T08:15:08.620Z,19.23
2022-08-21T08:19:10.121Z,19.91
2022-08-21T08:23:13.427Z,19.66
2022-08-21T08:27:15.720Z,19.90
2022-08-21T08:31:17.255Z,19.73
2022-08-21T08:35:18.989Z,20.03
2022-08-21T08:39:29.616Z,20.15
2022-08-21T08:43:34.130Z,20.19
2022-08-21T08:47:40.197Z,20.32
2022-08-21T08:51:53.352Z,20.12
2022-08-21T08:55:54.936Z,20.18
2022-08-21T08:59:58.941Z,20.41
2022-08-21T09:04:01.823Z,20.16
2022-08-21T09:08:09.496Z,20.13
2022-08-21T09:12:31.532Z,20.26
2022-08-21T09:16:55.401Z,20.24
2022-08-21T09:20:57.331Z,20.20
2022-08-21T09:25:19.836Z,19.95
2022-08-21T09:29:26.958Z,20.18
2022-08-21T09:33:29.264Z,20.10
2022-08-21T09:37:35.316Z,20.21
2022-08-21T09:41:38.142Z,20.46
2022-08-21T09:45:42.785Z,21.01
2022-08-21T09:49:44.684Z,21.06
2022-08-21T09:53:50.841Z,20.80
2022-08-21T09:57:52.396Z,21.23
2022-08-21T10:01:55.346Z,21.02
2022-08-21T10:06:06.224Z,20.88
2022-08-21T10:10:23.549Z,20.69
2022-08-21T10:14:41.183Z,21.28
2022-08-21T10:18:50.370Z,21.39
2022-08-21T10:23:20.409Z,21.87
2022-08-21T10:27:52.535Z,21.93
2022-08-21T10:32:30.017Z,22.74
2022-08-21T10:36:46.351Z,21.84
2022-08-21T10:41:01.374Z,22.40
2022-08-21T10:45:16.036Z,22.58
2022-08-21T10:49:30.750Z,23.05
2022-08-21T10:53:55.483Z,23.33
2022-08-21T10:58:21.872Z,24.19
2022-08-21T11:02:32.839Z,24.09
2022-08-21T11:06:37.985Z,24.66
2022-08-21T11:10:54.218Z,24.65
2022-08-21T11:15:05.925Z,24.69
2022-08-21T11:19:23.368Z,24.90
2022-08-21T11:23:48.369Z,24.06
2022-08-21T11:27:59.462Z,24.74
2022-08-21T11:32:41.103Z,24.53
2022-08-21T11:37:02.637Z,24.88
2022-08-21T11:41:30.843Z,25.13
2022-08-21T11:45:51.031Z,25.62
2022-08-21T11:50:34.835Z,24.85
2022-08-21T11:54:47.217Z,24.73
2022-08-21T11:58:52.594Z,23.93
2022-08-21T12:02:59.939Z,24.70
2022-08-21T12:07:30.003Z,25.10
2022-08-21T12:11:31.592Z,25.44
2022-08-21T12:15:33.057Z,25.49
2022-08-21T12:19:35.814Z,25.77
2022-08-21T12:23:59.934Z,26.08
2022-08-21T12:28:10.505Z,25.84
2022-08-21T12:32:11.907Z,25.97
2022-08-21T12:36:22.114Z,26.00
2022-08-21T12:40:32.400Z,26.83
2022-08-21T12:44:43.881Z,27.03
2022-08-21T12:48:52.297Z,26.71
2022-08-21T12:53:06.805Z,27.33
2022-08-21T12:57:31.380Z,27.93
2022-08-21T13:01:41.995Z,27.82
2022-08-21T13:05:43.709Z,27.52
2022-08-21T13:09:51.793Z,27.91
2022-08-21T13:13:54.319Z,28.22
2022-08-21T13:18:02.586Z,27.59
2022-08-21T13:22:34.942Z,27.23
2022-08-21T13:26:26.148Z,25.34
2022-08-21T13:30:27.651Z,23.85
2022-08-21T13:34:37.598Z,24.80
2022-08-21T13:38:42.512Z,26.48
2022-08-21T13:42:45.898Z,27.00
2022-08-21T13:46:48.849Z,25.63
2022-08-21T13:50:52.646Z,25.59
2022-08-21T13:55:10.435Z,26.34
2022-08-21T13:59:25.661Z,27.49
2022-08-21T14:03:33.657Z,27.83
2022-08-21T14:07:40.206Z,26.28
2022-08-21T14:11:41.889Z,26.10
2022-08-21T14:15:44.448Z,26.69
2022-08-21T14:19:48.695Z,25.60
2022-08-21T14:24:05.618Z,24.67
2022-08-21T14:28:28.112Z,23.80
2022-08-21T14:32:37.380Z,23.36
2022-08-21T14:36:46.191Z,23.34
2022-08-21T14:40:53.563Z,23.24
2022-08-21T14:45:00.811Z,23.51
2022-08-21T14:49:03.980Z,23.62
2022-08-21T14:53:11.312Z,23.46
2022-08-21T14:57:13.782Z,23.61
2022-08-21T15:01:18.122Z,23.79
2022-08-21T15:05:24.706Z,22.96
2022-08-21T15:09:34.720Z,23.73
2022-08-21T15:13:37.087Z,23.90
2022-08-21T15:17:38.597Z,23.59
2022-08-21T15:21:41.245Z,24.35
2022-08-21T15:25:44.999Z,24.51
2022-08-21T15:29:46.476Z,24.79
2022-08-21T15:33:47.964Z,24.95
2022-08-21T15:37:49.524Z,25.19
2022-08-21T15:41:51.076Z,24.67
2022-08-21T15:45:52.815Z,24.49
2022-08-21T15:49:54.332Z,24.10
2022-08-21T15:53:55.875Z,24.61
2022-08-21T15:57:59.216Z,24.06
2022-08-21T16:02:02.392Z,23.62
2022-08-21T16:06:04.136Z,23.52
2022-08-21T16:10:07.323Z,23.47
2022-08-21T16:14:08.839Z,23.37
2022-08-21T16:18:11.052Z,23.23
2022-08-21T16:22:12.516Z,23.74
2022-08-21T16:26:18.559Z,23.67
2022-08-21T16:30:21.400Z,23.38
2022-08-21T16:34:22.957Z,23.63
2022-08-21T16:38:24.438Z,23.57
2022-08-21T16:42:26.786Z,23.60
2022-08-21T16:46:31.555Z,24.69
2022-08-21T16:50:33.097Z,25.38
2022-08-21T16:54:34.652Z,26.44
2022-08-21T16:58:39.855Z,26.65
2022-08-21T17:02:48.062Z,25.77
2022-08-21T17:06:49.548Z,24.80
2022-08-21T17:10:51.468Z,25.58
2022-08-21T17:14:52.918Z,25.74
2022-08-21T17:18:54.668Z,25.33
2022-08-21T17:22:56.878Z,25.58
2022-08-21T17:26:59.477Z,26.09
2022-08-21T17:31:02.455Z,25.95
2022-08-21T17:35:12.421Z,26.08
2022-08-21T17:39:21.982Z,25.94
2022-08-21T17:43:25.192Z,25.62
2022-08-21T17:47:26.994Z,24.99
2022-08-21T17:51:28.821Z,24.29
2022-08-21T17:55:31.309Z,23.92
2022-08-21T17:59:33.167Z,23.53
2022-08-21T18:03:38.434Z,23.25
2022-08-21T18:07:41.328Z,22.90
2022-08-21T18:11:43.695Z,22.67
2022-08-21T18:15:49.723Z,22.36
2022-08-21T18:19:51.168Z,21.89
2022-08-21T18:23:55.516Z,21.58
2022-08-21T18:27:57.169Z,21.26
2022-08-21T18:31:58.762Z,21.02
2022-08-21T18:36:00.216Z,20.83
2022-08-21T18:40:08.694Z,20.61
2022-08-21T18:44:12.095Z,20.38
2022-08-21T18:48:15.828Z,20.25
2022-08-21T18:52:20.416Z,20.09
2022-08-21T18:56:22.183Z,19.96
2022-08-21T19:00:37.711Z,19.90
2022-08-21T19:04:48.072Z,19.79
2022-08-21T19:08:50.106Z,19.78
2022-08-21T19:12:51.926Z,19.77
2022-08-21T19:16:53.453Z,19.68
2022-08-21T19:20:55.377Z,19.52
2022-08-21T19:24:58.901Z,19.54
2022-08-21T19:29:05.478Z,19.48
2022-08-21T19:33:07.111Z,19.36
2022-08-21T19:37:12.058Z,19.11
2022-08-21T19:41:16.073Z,18.94
2022-08-21T19:45:17.839Z,18.71
2022-08-21T19:49:33.387Z,18.59
2022-08-21T19:53:35.022Z,18.42
2022-08-21T19:57:38.553Z,18.28
2022-08-21T20:01:40.191Z,18.14
2022-08-21T20:05:44.115Z,18.13
2022-08-21T20:09:45.539Z,18.14
2022-08-21T20:13:51.765Z,17.98
2022-08-21T20:17:54.260Z,18.04
2022-08-21T20:21:58.230Z,17.97
2022-08-21T20:26:00.530Z,17.84
2022-08-21T20:30:05.621Z,17.81
2022-08-21T20:34:07.246Z,17.65
2022-08-21T20:38:08.781Z,17.57
2022-08-21T20:42:11.176Z,17.40
2022-08-21T20:46:16.362Z,17.42
2022-08-21T20:50:24.830Z,17.40
2022-08-21T20:54:45.157Z,17.45
2022-08-21T20:59:03.185Z,17.63
2022-08-21T21:03:12.133Z,17.77
2022-08-21T21:07:21.060Z,17.61
2022-08-21T21:11:36.082Z,17.63
2022-08-21T21:15:43.598Z,17.70
2022-08-21T21:19:51.506Z,17.50
2022-08-21T21:24:16.079Z,17.53
2022-08-21T21:28:30.293Z,17.64
2022-08-21T21:32:31.902Z,17.43
2022-08-21T21:36:58.923Z,17.21
2022-08-21T21:41:17.070Z,17.06
2022-08-21T21:45:26.533Z,16.96
2022-08-21T21:49:39.298Z,17.05
2022-08-21T21:53:59.330Z,17.08
2022-08-21T21:58:27.416Z,17.23
2022-08-21T22:02:56.909Z,17.17
2022-08-21T22:07:09.349Z,16.95
2022-08-21T22:11:24.469Z,16.69
2022-08-21T22:15:30.988Z,16.51
2022-08-21T22:19:40.341Z,16.39
2022-08-21T22:23:52.604Z,16.34
2022-08-21T22:28:11.420Z,16.20
2022-08-21T22:32:39.664Z,16.08
2022-08-21T22:41:28.642Z,15.91
2022-08-21T22:45:33.221Z,15.78
2022-08-21T22:49:47.278Z,15.67
2022-08-21T22:53:55.237Z,15.61
2022-08-21T22:58:23.901Z,15.54
2022-08-21T23:02:30.939Z,15.50
2022-08-21T23:06:32.301Z,15.46
2022-08-21T23:10:40.824Z,15.43
2022-08-21T23:14:42.975Z,15.35
2022-08-21T23:19:02.673Z,15.31
2022-08-21T23:23:23.600Z,15.26
2022-08-21T23:27:48.206Z,15.15
2022-08-21T23:32:02.902Z,15.17
2022-08-21T23:36:29.743Z,15.12
2022-08-21T23:40:51.622Z,15.07
2022-08-21T23:45:14.104Z,15.06
2022-08-21T23:49:44.175Z,15.07
2022-08-21T23:54:00.898Z,15.05
2022-08-21T23:58:26.668Z,15.10
